Time;durP1;ratioP1;P1;durP2;ratioP2;P2;SDS_P1;SDS_P2;PMS_P1;PMS_P2;Temp;Humidity;BMP_temperature;BMP_pressure;BME280_temperature;BME280_humidity;BME280_pressure;Samples;Min_cycle;Max_cycle;Signal;HPM_P1;HPM_P2
2022/03/29 00:01:13;;;;;;;48.83;20.33;;;7.30;99.90;;;;;;4995935;28;20078;-71
2022/03/29 00:03:39;;;;;;;41.22;20.25;;;7.30;99.90;;;;;;5011739;28;20089;-71
2022/03/29 00:06:04;;;;;;;40.17;18.50;;;7.30;99.90;;;;;;5007840;28;20057;-71
2022/03/29 00:08:30;;;;;;;43.55;20.17;;;7.30;99.90;;;;;;5028239;28;20426;-71
2022/03/29 00:10:56;;;;;;;45.42;20.83;;;7.30;99.90;;;;;;4993926;28;20097;-72
2022/03/29 00:13:22;;;;;;;41.72;19.27;;;7.30;99.90;;;;;;4993206;28;20479;-71
2022/03/29 00:15:48;;;;;;;43.17;19.70;;;7.30;99.90;;;;;;4999959;28;20403;-72
2022/03/29 00:18:14;;;;;;;41.67;20.15;;;7.30;99.90;;;;;;4993725;28;20038;-71
2022/03/29 00:20:41;;;;;;;42.85;19.73;;;7.30;99.90;;;;;;4993799;28;20077;-71
2022/03/29 00:23:07;;;;;;;43.17;19.27;;;7.30;99.90;;;;;;4996750;28;20109;-72
2022/03/29 00:25:33;;;;;;;37.10;18.42;;;7.30;99.90;;;;;;5025886;28;20042;-71
2022/03/29 00:27:59;;;;;;;39.50;18.25;;;7.30;99.90;;;;;;5006832;28;20046;-71
2022/03/29 00:30:25;;;;;;;38.40;18.15;;;7.30;99.90;;;;;;5005416;28;20503;-71
2022/03/29 00:32:51;;;;;;;38.38;18.48;;;7.30;99.90;;;;;;5007070;28;20088;-71
2022/03/29 00:35:17;;;;;;;37.60;18.95;;;7.30;99.90;;;;;;5006028;28;20050;-72
2022/03/29 00:37:43;;;;;;;35.33;18.63;;;7.30;99.90;;;;;;5012720;28;20049;-71
2022/03/29 00:40:11;;;;;;;36.88;17.65;;;7.30;99.90;;;;;;4995974;28;20093;-71
2022/03/29 00:42:38;;;;;;;35.08;18.40;;;7.30;99.90;;;;;;5009196;28;20096;-72
2022/03/29 00:45:05;;;;;;;38.40;18.35;;;7.30;99.90;;;;;;4991853;28;20133;-71
2022/03/29 00:47:31;;;;;;;35.30;18.52;;;7.20;99.90;;;;;;5010554;28;20073;-71
2022/03/29 00:49:57;;;;;;;35.08;17.27;;;7.20;99.90;;;;;;4993381;28;20054;-73
2022/03/29 00:52:24;;;;;;;34.25;18.10;;;7.20;99.90;;;;;;4980471;28;20046;-71
2022/03/29 00:54:50;;;;;;;33.65;18.15;;;7.20;99.90;;;;;;5002322;28;20053;-72
2022/03/29 00:57:16;;;;;;;38.13;18.80;;;7.50;99.90;;;;;;4994748;28;20046;-71
2022/03/29 00:59:44;;;;;;;36.55;18.35;;;7.20;99.90;;;;;;4973231;28;20041;-71
2022/03/29 01:02:10;;;;;;;35.60;17.75;;;7.20;99.90;;;;;;4993353;28;20050;-71
2022/03/29 01:04:36;;;;;;;37.75;18.17;;;7.20;99.90;;;;;;5000317;28;20042;-72
2022/03/29 01:07:02;;;;;;;41.80;17.88;;;7.30;99.90;;;;;;4983829;28;20081;-71
2022/03/29 01:09:30;;;;;;;37.97;16.80;;;7.20;99.90;;;;;;5009030;28;20397;-72
2022/03/29 01:11:57;;;;;;;33.00;17.45;;;7.30;99.90;;;;;;5009029;28;20046;-71
2022/03/29 01:14:25;;;;;;;33.20;17.10;;;7.50;99.90;;;;;;4995992;28;20073;-71
2022/03/29 01:19:38;;;;;;;35.60;17.20;;;7.30;99.90;;;;;;5008907;28;20461;-71
2022/03/29 01:22:07;;;;;;;36.70;16.90;;;7.30;99.90;;;;;;5002633;28;20498;-71
2022/03/29 01:24:40;;;;;;;32.65;17.08;;;7.30;99.90;;;;;;5009900;28;20120;-71
2022/03/29 01:27:07;;;;;;;32.13;16.38;;;7.30;99.90;;;;;;5003261;28;20461;-71
2022/03/29 01:29:36;;;;;;;34.58;16.92;;;7.30;99.90;;;;;;5004498;28;20136;-73
2022/03/29 01:32:03;;;;;;;34.92;16.88;;;7.30;99.90;;;;;;4997085;28;20046;-70
2022/03/29 01:34:31;;;;;;;34.10;16.98;;;7.30;99.90;;;;;;5010033;28;20050;-71
2022/03/29 01:36:57;;;;;;;34.05;16.95;;;7.30;99.90;;;;;;5009061;28;20054;-71
2022/03/29 01:39:23;;;;;;;35.67;17.25;;;7.30;99.90;;;;;;4998313;28;20056;-71
2022/03/29 01:41:49;;;;;;;38.13;17.98;;;7.30;99.90;;;;;;5011859;28;20084;-70
2022/03/29 01:44:15;;;;;;;35.00;17.13;;;7.30;99.90;;;;;;4978535;28;20570;-70
2022/03/29 01:46:41;;;;;;;34.05;17.17;;;7.30;99.90;;;;;;4984505;28;20129;-74
2022/03/29 01:49:07;;;;;;;36.20;17.85;;;7.40;99.90;;;;;;4985544;28;20058;-71
2022/03/29 01:51:34;;;;;;;36.67;17.73;;;7.60;99.90;;;;;;5002390;28;20499;-70
2022/03/29 01:54:05;;;;;;;35.42;17.25;;;7.20;99.90;;;;;;5003440;28;20099;-71
2022/03/29 01:56:32;;;;;;;;;;;7.30;99.90;;;;;;4998119;28;20054;-71
2022/03/29 01:58:59;;;;;;;36.20;16.65;;;7.20;99.90;;;;;;5006385;28;20013;-71
2022/03/29 02:01:25;;;;;;;33.67;18.05;;;7.20;99.90;;;;;;4969632;28;20053;-70
2022/03/29 02:03:51;;;;;;;36.78;17.33;;;7.20;99.90;;;;;;4975673;28;20050;-71
2022/03/29 02:06:17;;;;;;;33.58;17.48;;;7.20;99.90;;;;;;5004415;28;20046;-74
2022/03/29 02:08:43;;;;;;;40.45;18.15;;;7.20;99.90;;;;;;4986928;28;20049;-71
2022/03/29 02:11:09;;;;;;;38.42;17.90;;;7.20;99.90;;;;;;4997062;28;20054;-71
2022/03/29 02:13:35;;;;;;;35.63;18.63;;;7.20;99.90;;;;;;4991708;28;20042;-71
2022/03/29 02:16:01;;;;;;;40.92;18.42;;;7.20;99.90;;;;;;4988776;28;20140;-71
2022/03/29 02:18:27;;;;;;;41.30;19.98;;;7.20;99.90;;;;;;5001645;28;20562;-71
2022/03/29 02:20:53;;;;;;;43.22;18.98;;;7.10;99.90;;;;;;5009898;28;20038;-73
2022/03/29 02:23:19;;;;;;;36.45;17.95;;;7.10;99.90;;;;;;5010981;28;20084;-71
2022/03/29 02:25:46;;;;;;;38.40;18.58;;;7.10;99.90;;;;;;5010114;28;20088;-70
2022/03/29 02:28:12;;;;;;;39.47;18.98;;;7.10;99.90;;;;;;5010882;28;20049;-71
2022/03/29 02:30:38;;;;;;;38.20;19.30;;;7.10;99.90;;;;;;5006709;28;20054;-71
2022/03/29 02:33:05;;;;;;;40.67;19.50;;;7.10;99.90;;;;;;5010308;28;20049;-72
2022/03/29 02:35:32;;;;;;;40.22;19.73;;;7.10;99.90;;;;;;4994217;28;20062;-70
2022/03/29 02:37:59;;;;;;;39.60;19.63;;;7.10;99.90;;;;;;5010607;28;20499;-71
2022/03/29 02:40:25;;;;;;;40.60;19.98;;;7.10;99.90;;;;;;4998249;28;20046;-71
2022/03/29 02:42:52;;;;;;;41.42;20.30;;;7.10;99.90;;;;;;4991430;28;20053;-71
2022/03/29 02:45:21;;;;;;;40.58;19.23;;;7.10;99.90;;;;;;4981804;28;20491;-70
2022/03/29 02:47:49;;;;;;;44.83;20.27;;;7.10;99.90;;;;;;5010632;28;20506;-73
2022/03/29 02:50:17;;;;;;;39.55;19.42;;;7.10;99.90;;;;;;5007551;28;20418;-71
2022/03/29 02:52:44;;;;;;;40.67;20.10;;;7.10;99.90;;;;;;5000257;28;20050;-71
2022/03/29 02:55:11;;;;;;;37.03;18.85;;;7.10;99.90;;;;;;4993713;28;20050;-71
2022/03/29 02:57:37;;;;;;;45.95;21.73;;;7.10;99.90;;;;;;5010422;28;20406;-71
2022/03/29 03:00:06;;;;;;;42.65;21.05;;;7.10;99.90;;;;;;4989984;28;20053;-71
2022/03/29 03:02:34;;;;;;;49.53;20.85;;;7.10;99.90;;;;;;4981204;28;20046;-71
2022/03/29 03:05:01;;;;;;;44.72;21.05;;;7.10;99.90;;;;;;4984075;28;20056;-71
2022/03/29 03:07:27;;;;;;;42.33;20.55;;;7.00;99.90;;;;;;5012015;28;20088;-72
2022/03/29 03:09:53;;;;;;;44.15;21.33;;;7.00;99.90;;;;;;4995178;28;20410;-72
2022/03/29 03:12:19;;;;;;;44.42;20.25;;;7.00;99.90;;;;;;5004221;28;20038;-71
2022/03/29 03:14:46;;;;;;;42.33;21.02;;;7.00;99.90;;;;;;5012263;28;20128;-72
2022/03/29 03:17:12;;;;;;;49.55;21.10;;;7.00;99.90;;;;;;5014306;28;20053;-73
2022/03/29 03:19:38;;;;;;;42.83;20.80;;;7.00;99.90;;;;;;5010872;28;20573;-71
2022/03/29 03:22:04;;;;;;;48.22;21.35;;;7.00;99.90;;;;;;5021749;28;20133;-72
2022/03/29 03:24:30;;;;;;;44.67;21.90;;;7.00;99.90;;;;;;5006983;28;20057;-71
2022/03/29 03:26:56;;;;;;;45.55;22.15;;;7.00;99.90;;;;;;5013953;28;20045;-71
2022/03/29 03:29:22;;;;;;;45.58;21.17;;;7.00;99.90;;;;;;5012843;28;20073;-73
2022/03/29 03:31:48;;;;;;;45.45;21.40;;;7.00;99.90;;;;;;4997979;28;20157;-72
2022/03/29 03:34:14;;;;;;;42.88;20.67;;;7.00;99.90;;;;;;5010202;28;20479;-71
2022/03/29 03:36:40;;;;;;;45.10;21.77;;;7.00;99.90;;;;;;4984933;28;20054;-71
2022/03/29 03:39:06;;;;;;;43.45;21.00;;;7.00;99.90;;;;;;5007506;28;20054;-71
2022/03/29 03:41:32;;;;;;;45.72;21.48;;;7.00;99.90;;;;;;5004464;28;20387;-73
2022/03/29 03:43:58;;;;;;;44.30;21.45;;;7.00;99.90;;;;;;4998056;28;20545;-71
2022/03/29 03:46:24;;;;;;;47.17;20.15;;;7.00;99.90;;;;;;4991312;28;20399;-72
2022/03/29 03:48:50;;;;;;;44.65;20.85;;;7.00;99.90;;;;;;4997871;28;20360;-72
2022/03/29 03:51:16;;;;;;;39.42;20.05;;;7.00;99.90;;;;;;5004835;28;20520;-71
2022/03/29 03:53:42;;;;;;;48.67;20.67;;;7.00;99.90;;;;;;4989284;28;20042;-71
2022/03/29 03:56:08;;;;;;;47.40;21.17;;;7.00;99.90;;;;;;5006592;28;20050;-72
2022/03/29 03:58:34;;;;;;;44.40;21.08;;;7.00;99.90;;;;;;4980338;28;20107;-72
2022/03/29 04:01:00;;;;;;;48.25;21.65;;;7.00;99.90;;;;;;4985111;28;20104;-71
2022/03/29 04:03:25;;;;;;;53.90;22.60;;;7.80;99.90;;;;;;5012865;28;20474;-71
2022/03/29 04:05:52;;;;;;;47.47;22.35;;;6.90;99.90;;;;;;5012727;28;20090;-71
2022/03/29 04:08:18;;;;;;;41.05;21.00;;;6.90;99.90;;;;;;4994310;28;20434;-73
2022/03/29 04:10:45;;;;;;;46.00;20.77;;;7.00;99.90;;;;;;5001841;28;20042;-71
2022/03/29 04:13:11;;;;;;;44.72;21.08;;;6.90;99.90;;;;;;4996797;28;20061;-71
2022/03/29 04:15:37;;;;;;;46.90;21.67;;;7.00;99.90;;;;;;5003480;28;20152;-71
2022/03/29 04:18:02;;;;;;;51.42;22.10;;;7.00;99.90;;;;;;5001056;28;20053;-71
2022/03/29 04:20:29;;;;;;;49.03;21.40;;;7.00;99.90;;;;;;5000383;28;20045;-72
2022/03/29 04:22:56;;;;;;;55.25;23.13;;;7.00;99.90;;;;;;5003706;28;20046;-71
2022/03/29 04:25:22;;;;;;;54.60;22.52;;;6.90;99.90;;;;;;5003399;28;20046;-71
2022/03/29 04:27:48;;;;;;;47.22;22.13;;;6.90;99.90;;;;;;4991787;28;20105;-71
2022/03/29 04:30:14;;;;;;;50.35;22.15;;;7.00;99.90;;;;;;4994643;28;20491;-72
2022/03/29 04:32:40;;;;;;;49.13;22.92;;;7.00;99.90;;;;;;5009903;28;20423;-71
2022/03/29 04:35:06;;;;;;;52.15;22.48;;;7.00;99.90;;;;;;5010759;28;20061;-71
2022/03/29 04:37:33;;;;;;;45.90;20.90;;;7.00;99.90;;;;;;4975928;28;20088;-73
2022/03/29 04:39:58;;;;;;;49.25;22.00;;;7.00;99.90;;;;;;5006996;28;20050;-72
2022/03/29 04:42:24;;;;;;;49.85;21.95;;;7.00;99.90;;;;;;4992940;28;20407;-71
2022/03/29 04:44:50;;;;;;;46.85;21.17;;;7.00;99.90;;;;;;4976486;28;20505;-71
2022/03/29 04:47:16;;;;;;;45.20;20.23;;;7.00;99.90;;;;;;5009353;28;20513;-71
2022/03/29 04:49:42;;;;;;;46.00;19.65;;;7.30;99.90;;;;;;5008930;28;20061;-72
2022/03/29 04:52:08;;;;;;;41.00;19.65;;;7.00;99.90;;;;;;4975606;28;20060;-71
2022/03/29 04:54:34;;;;;;;42.45;18.98;;;7.00;99.90;;;;;;5009456;28;20120;-74
2022/03/29 04:57:00;;;;;;;46.15;20.23;;;7.00;99.90;;;;;;5008879;28;20046;-73
2022/03/29 04:59:27;;;;;;;43.58;19.27;;;6.90;99.90;;;;;;5011375;28;20089;-71
2022/03/29 05:01:52;;;;;;;43.97;19.90;;;7.00;99.90;;;;;;4993028;28;20473;-71
2022/03/29 05:04:19;;;;;;;45.55;21.05;;;6.90;99.90;;;;;;4992454;28;20078;-72
2022/03/29 05:06:45;;;;;;;46.10;20.05;;;6.90;99.90;;;;;;5009144;28;20058;-71
2022/03/29 05:09:10;;;;;;;42.50;19.75;;;6.90;99.90;;;;;;5011416;28;20123;-71
2022/03/29 05:11:36;;;;;;;49.63;20.70;;;6.90;99.90;;;;;;4999240;28;20183;-71
2022/03/29 05:14:02;;;;;;;45.67;19.83;;;6.90;99.90;;;;;;5003348;28;20517;-71
2022/03/29 05:16:28;;;;;;;45.03;20.02;;;6.90;99.90;;;;;;5008046;28;20048;-71
2022/03/29 05:18:54;;;;;;;42.67;19.80;;;6.90;99.90;;;;;;4980017;28;20046;-71
2022/03/29 05:21:20;;;;;;;45.28;19.42;;;7.20;99.90;;;;;;5000290;28;20077;-72
2022/03/29 05:23:46;;;;;;;41.25;20.20;;;6.90;99.90;;;;;;4977627;28;20077;-71
2022/03/29 05:26:12;;;;;;;43.92;20.45;;;6.90;99.90;;;;;;5006242;28;20148;-71
2022/03/29 05:28:38;;;;;;;43.08;20.17;;;6.90;99.90;;;;;;5008023;28;20085;-71
2022/03/29 05:31:05;;;;;;;46.28;20.85;;;6.90;99.90;;;;;;4994813;28;20411;-72
2022/03/29 05:33:30;;;;;;;48.55;21.17;;;6.90;99.90;;;;;;5002992;28;20870;-72
2022/03/29 05:35:57;;;;;;;45.45;21.05;;;6.90;99.90;;;;;;5010895;28;20140;-71
2022/03/29 05:38:23;;;;;;;43.67;19.38;;;6.90;99.90;;;;;;4986929;28;20053;-71
2022/03/29 05:40:49;;;;;;;46.83;20.70;;;6.90;99.90;;;;;;4999013;28;20038;-71
2022/03/29 05:43:17;;;;;;;47.28;21.38;;;6.90;99.90;;;;;;5002621;28;20042;-72
2022/03/29 05:45:45;;;;;;;46.15;20.88;;;6.90;99.90;;;;;;4988443;28;20050;-71
2022/03/29 05:50:55;;;;;;;43.03;21.02;;;6.90;99.90;;;;;;5006678;28;20153;-71
2022/03/29 05:53:21;;;;;;;41.08;19.73;;;6.90;99.90;;;;;;5004509;28;20053;-72
2022/03/29 05:55:48;;;;;;;49.72;20.40;;;6.90;99.90;;;;;;5018716;28;20082;-73
2022/03/29 05:58:16;;;;;;;46.10;21.40;;;6.90;99.90;;;;;;4984801;28;20403;-71
2022/03/29 06:00:43;;;;;;;45.22;20.52;;;6.90;99.90;;;;;;5003728;28;20052;-71
2022/03/29 06:03:10;;;;;;;47.20;20.83;;;6.90;99.90;;;;;;4993427;28;20042;-69
2022/03/29 06:05:36;;;;;;;46.13;21.00;;;7.00;99.90;;;;;;5010889;28;20376;-69
2022/03/29 06:08:02;;;;;;;46.65;20.15;;;7.00;99.90;;;;;;4991683;28;20050;-71
2022/03/29 06:10:28;;;;;;;45.55;20.38;;;7.00;99.90;;;;;;4994211;28;20145;-71
2022/03/29 06:12:54;;;;;;;45.10;20.50;;;7.40;99.90;;;;;;4992391;28;20057;-70
2022/03/29 06:15:20;;;;;;;42.97;20.77;;;7.10;99.90;;;;;;5000681;28;20046;-70
2022/03/29 06:17:46;;;;;;;40.03;20.02;;;7.10;99.90;;;;;;5008971;28;20115;-70
2022/03/29 06:20:12;;;;;;;43.88;20.58;;;7.10;99.90;;;;;;4990436;28;20630;-70
2022/03/29 06:22:42;;;;;;;44.95;21.45;;;7.20;99.90;;;;;;5005905;28;20064;-71
2022/03/29 06:25:09;;;;;;;49.03;20.67;;;7.20;99.90;;;;;;5004986;28;20065;-70
2022/03/29 06:27:35;;;;;;;51.55;21.50;;;7.30;99.90;;;;;;5002416;28;20043;-71
2022/03/29 06:30:03;;;;;;;49.47;21.35;;;7.30;99.90;;;;;;5010663;28;20046;-71
2022/03/29 06:32:29;;;;;;;46.88;20.45;;;7.30;99.90;;;;;;5004032;28;20100;-71
2022/03/29 06:34:55;;;;;;;38.97;18.50;;;7.30;99.90;;;;;;5009215;28;20046;-70
2022/03/29 06:37:21;;;;;;;45.80;20.13;;;7.40;99.90;;;;;;5008547;28;20064;-71
2022/03/29 06:39:47;;;;;;;39.05;19.02;;;7.40;99.90;;;;;;4997106;28;20052;-72
2022/03/29 06:42:18;;;;;;;39.58;19.58;;;7.40;99.90;;;;;;5005267;28;20089;-70
2022/03/29 06:45:03;;;;;;;44.55;19.98;;;7.50;99.90;;;;;;5006080;28;20112;-70
2022/03/29 06:47:29;;;;;;;46.28;20.50;;;7.50;99.90;;;;;;5005869;28;20056;-71
2022/03/29 06:49:55;;;;;;;44.45;19.77;;;7.50;99.90;;;;;;5009366;28;20049;-73
2022/03/29 06:52:26;;;;;;;38.95;18.65;;;7.50;99.90;;;;;;5007676;28;20050;-70
2022/03/29 06:54:52;;;;;;;40.50;20.50;;;7.50;99.90;;;;;;5001617;28;20112;-72
2022/03/29 06:57:18;;;;;;;40.05;21.45;;;7.50;99.90;;;;;;4989326;28;20045;-68
2022/03/29 06:59:44;;;;;;;44.40;19.77;;;7.60;99.90;;;;;;4990501;28;20066;-70
2022/03/29 07:02:11;;;;;;;39.92;19.63;;;7.60;99.90;;;;;;4987106;28;20399;-70
2022/03/29 07:04:37;;;;;;;45.03;20.17;;;7.60;99.90;;;;;;5002578;28;20061;-70
2022/03/29 07:07:04;;;;;;;44.10;20.77;;;7.60;99.90;;;;;;4990318;28;20042;-70
2022/03/29 07:12:14;;;;;;;42.28;19.00;;;7.70;99.90;;;;;;5015786;28;20084;-70
2022/03/29 07:14:40;;;;;;;44.58;19.98;;;7.90;99.90;;;;;;4984355;28;20541;-70
2022/03/29 07:17:10;;;;;;;48.22;21.50;;;7.80;99.90;;;;;;5001857;28;20046;-70
2022/03/29 07:19:36;;;;;;;42.90;21.05;;;7.80;99.90;;;;;;4995445;28;20108;-70
2022/03/29 07:22:02;;;;;;;45.78;20.55;;;7.80;99.90;;;;;;5003084;28;20423;-71
2022/03/29 07:24:28;;;;;;;41.15;19.17;;;7.90;99.90;;;;;;4995683;28;20062;-71
2022/03/29 07:26:54;;;;;;;42.25;20.25;;;7.90;99.90;;;;;;5002572;28;20149;-70
2022/03/29 07:29:20;;;;;;;46.33;20.75;;;8.00;99.90;;;;;;5009273;28;20050;-69
2022/03/29 07:31:46;;;;;;;41.45;20.95;;;7.90;99.90;;;;;;4975193;28;20133;-69
2022/03/29 07:34:12;;;;;;;45.53;19.92;;;7.90;99.90;;;;;;4978553;28;20077;-69
2022/03/29 07:36:38;;;;;;;40.83;20.17;;;8.00;99.90;;;;;;4989863;28;20073;-71
2022/03/29 07:39:04;;;;;;;48.65;20.45;;;8.20;99.90;;;;;;4997038;28;20080;-72
2022/03/29 07:41:32;;;;;;;46.47;20.42;;;8.00;99.90;;;;;;4991085;28;20077;-69
2022/03/29 07:43:58;;;;;;;47.08;20.75;;;8.00;99.90;;;;;;4976310;28;20050;-70
2022/03/29 07:46:24;;;;;;;45.45;21.50;;;8.00;99.90;;;;;;4981047;28;20058;-70
2022/03/29 07:48:50;;;;;;;45.17;20.65;;;8.10;99.90;;;;;;5006772;28;20080;-69
2022/03/29 07:51:18;;;;;;;43.65;20.50;;;8.20;99.90;;;;;;4975059;28;20086;-72
2022/03/29 07:53:44;;;;;;;45.33;21.30;;;8.30;99.90;;;;;;4985841;28;20117;-69
2022/03/29 07:56:10;;;;;;;41.60;20.77;;;8.30;99.90;;;;;;4971290;28;20057;-71
2022/03/29 07:58:36;;;;;;;45.30;21.15;;;8.30;99.90;;;;;;5000282;28;20073;-69
2022/03/29 08:01:02;;;;;;;43.08;20.52;;;8.30;99.90;;;;;;5005050;28;20049;-70
2022/03/29 08:03:32;;;;;;;43.13;19.88;;;8.30;99.90;;;;;;5014773;28;20050;-70
2022/03/29 08:05:59;;;;;;;42.45;19.75;;;8.40;99.90;;;;;;5019217;28;20395;-70
2022/03/29 08:08:26;;;;;;;42.67;18.92;;;8.40;99.90;;;;;;4994698;28;20054;-69
2022/03/29 08:10:52;;;;;;;41.90;17.08;;;8.50;99.90;;;;;;4993817;28;20046;-69
2022/03/29 08:13:18;;;;;;;37.88;16.67;;;8.50;99.90;;;;;;5017650;28;20049;-70
2022/03/29 08:15:47;;;;;;;33.38;16.08;;;8.40;99.90;;;;;;5003283;28;20084;-70
2022/03/29 08:18:13;;;;;;;39.22;16.27;;;8.40;99.90;;;;;;4991363;28;20054;-70
2022/03/29 08:20:39;;;;;;;40.60;16.83;;;8.40;99.90;;;;;;4994190;28;20049;-70
2022/03/29 08:23:06;;;;;;;44.58;18.15;;;8.60;99.90;;;;;;4986293;28;20053;-76
2022/03/29 08:25:35;;;;;;;39.75;17.98;;;8.60;99.90;;;;;;5008848;28;20114;-75
2022/03/29 08:28:02;;;;;;;40.58;17.75;;;8.70;99.90;;;;;;4999483;28;20093;-74
2022/03/29 08:30:30;;;;;;;44.30;18.65;;;8.80;99.90;;;;;;5004254;28;20047;-76
2022/03/29 08:32:59;;;;;;;40.72;18.35;;;9.00;99.90;;;;;;5001767;28;20041;-74
2022/03/29 08:35:26;;;;;;;44.38;18.80;;;9.10;99.90;;;;;;5016516;28;20045;-75
2022/03/29 08:37:52;;;;;;;42.00;17.92;;;9.30;99.90;;;;;;4999411;28;20049;-74
2022/03/29 08:40:26;;;;;;;39.45;16.77;;;9.50;99.90;;;;;;5016707;28;20053;-74
2022/03/29 08:42:58;;;;;;;35.55;15.75;;;9.70;99.90;;;;;;4981158;28;20046;-74
2022/03/29 08:45:31;;;;;;;37.85;16.67;;;9.70;99.90;;;;;;5009557;28;20054;-75
2022/03/29 08:47:59;;;;;;;35.47;16.67;;;9.80;99.90;;;;;;5012708;28;20045;-74
2022/03/29 08:50:36;;;;;;;29.85;14.35;;;9.90;99.90;;;;;;5012172;28;20085;-74
2022/03/29 08:53:03;;;;;;;31.25;13.45;;;10.00;99.90;;;;;;5009459;28;20077;-75
2022/03/29 08:55:30;;;;;;;32.22;12.38;;;10.00;99.90;;;;;;4992612;28;20521;-77
2022/03/29 08:57:56;;;;;;;28.08;11.55;;;9.70;99.90;;;;;;5004834;28;20486;-75
2022/03/29 09:00:26;;;;;;;30.75;10.23;;;10.20;99.90;;;;;;4992604;28;20062;-75
2022/03/29 09:02:52;;;;;;;22.25;9.30;;;10.00;99.90;;;;;;4984641;28;20399;-74
2022/03/29 09:05:23;;;;;;;25.00;8.70;;;10.10;99.90;;;;;;5010774;28;20550;-74
2022/03/29 09:07:50;;;;;;;;;;;10.20;99.90;;;;;;4993139;28;20046;-74
2022/03/29 09:10:17;;;;;;;27.02;8.55;;;10.20;99.90;;;;;;4995698;28;19921;-74
2022/03/29 09:12:44;;;;;;;23.90;8.25;;;10.40;99.90;;;;;;4994298;28;20544;-75
2022/03/29 09:15:10;;;;;;;27.48;9.65;;;10.50;99.90;;;;;;4988524;28;20085;-74
2022/03/29 09:17:44;;;;;;;30.52;11.32;;;10.80;99.90;;;;;;4994279;28;20452;-74
2022/03/29 09:20:21;;;;;;;25.50;9.27;;;10.80;99.90;;;;;;5018630;28;20482;-75
2022/03/29 09:22:50;;;;;;;25.67;9.60;;;10.80;99.90;;;;;;4995858;28;20493;-75
2022/03/29 09:25:47;;;;;;;25.13;9.85;;;10.80;99.90;;;;;;5001886;28;20050;-75
2022/03/29 09:28:20;;;;;;;24.42;9.20;;;10.80;99.90;;;;;;5015544;28;20085;-74
2022/03/29 09:30:49;;;;;;;26.63;9.65;;;10.90;99.90;;;;;;5001485;28;20042;-75
2022/03/29 09:33:33;;;;;;;23.25;8.77;;;11.00;99.90;;;;;;5012536;28;20057;-75
2022/03/29 09:36:07;;;;;;;27.45;8.80;;;10.70;99.90;;;;;;4995182;28;20054;-75
2022/03/29 09:38:39;;;;;;;21.70;8.85;;;10.80;99.90;;;;;;4985873;28;20053;-75
2022/03/29 09:41:18;;;;;;;26.52;8.63;;;10.80;99.90;;;;;;5001209;28;20260;-74
2022/03/29 09:43:44;;;;;;;29.23;9.80;;;10.90;99.90;;;;;;4994214;28;20077;-74
2022/03/29 09:46:10;;;;;;;27.75;8.13;;;11.00;99.90;;;;;;4960614;28;20471;-75
2022/03/29 09:48:39;;;;;;;22.35;9.05;;;11.10;99.90;;;;;;4992058;28;20118;-74
2022/03/29 09:51:08;;;;;;;23.48;9.48;;;11.20;99.90;;;;;;4984641;28;20099;-74
2022/03/29 09:53:51;;;;;;;25.13;8.40;;;11.30;99.90;;;;;;5011943;28;20092;-75
2022/03/29 09:56:30;;;;;;;25.00;8.43;;;11.40;99.90;;;;;;4990497;28;20124;-74
2022/03/29 09:59:08;;;;;;;25.52;9.23;;;11.50;99.90;;;;;;5019201;28;20048;-77
2022/03/29 10:01:57;;;;;;;27.88;11.20;;;11.50;99.90;;;;;;5003898;28;20049;-67
2022/03/29 10:04:31;;;;;;;24.77;11.50;;;11.50;99.90;;;;;;5009507;28;20049;-79
2022/03/29 10:07:01;;;;;;;27.15;11.00;;;11.40;99.90;;;;;;5004152;28;20054;-70
2022/03/29 10:09:35;;;;;;;27.80;11.90;;;11.80;99.90;;;;;;5023453;28;20125;-71
2022/03/29 10:12:04;;;;;;;23.92;10.23;;;11.90;99.90;;;;;;4992545;28;20196;-70
2022/03/29 10:14:39;;;;;;;21.05;8.43;;;12.00;99.90;;;;;;5006556;28;20041;-70
2022/03/29 10:17:06;;;;;;;21.95;7.95;;;12.00;99.90;;;;;;4984659;28;20042;-70
2022/03/29 10:19:37;;;;;;;20.42;7.55;;;11.90;99.90;;;;;;4989537;28;20399;-71
2022/03/29 10:22:04;;;;;;;17.45;7.55;;;11.80;99.90;;;;;;5018101;28;20060;-70
2022/03/29 10:24:31;;;;;;;22.02;7.55;;;11.80;99.90;;;;;;5015736;28;20406;-70
2022/03/29 10:26:59;;;;;;;20.15;7.53;;;11.70;99.90;;;;;;4994469;28;20127;-70
2022/03/29 10:29:26;;;;;;;22.58;7.35;;;11.70;99.90;;;;;;5003035;28;20054;-70
2022/03/29 10:32:01;;;;;;;22.27;7.32;;;11.40;99.90;;;;;;5006373;28;20059;-70
2022/03/29 10:34:40;;;;;;;22.45;7.80;;;11.20;99.90;;;;;;4999438;28;20053;-70
2022/03/29 10:37:16;;;;;;;19.88;6.68;;;11.40;99.90;;;;;;5002060;28;20085;-70
2022/03/29 10:39:54;;;;;;;21.73;7.57;;;11.50;99.90;;;;;;4992550;28;20200;-72
2022/03/29 10:42:33;;;;;;;23.45;7.10;;;11.50;99.90;;;;;;5010508;28;20049;-69
2022/03/29 10:45:03;;;;;;;23.70;7.40;;;11.50;99.90;;;;;;5030836;28;20046;-71
2022/03/29 10:47:30;;;;;;;27.65;6.78;;;10.80;99.90;;;;;;5030495;28;20049;-72
2022/03/29 10:49:57;;;;;;;20.67;6.82;;;11.50;99.90;;;;;;4994417;28;20062;-73
2022/03/29 10:52:22;;;;;;;22.33;6.60;;;11.40;99.90;;;;;;5012144;28;20056;-72
2022/03/29 10:55:11;;;;;;;21.30;6.95;;;11.70;99.90;;;;;;5009919;28;20045;-73
2022/03/29 10:57:37;;;;;;;19.10;5.82;;;11.80;99.90;;;;;;4996683;28;20042;-74
2022/03/29 11:00:18;;;;;;;19.83;6.20;;;11.70;99.90;;;;;;5006935;28;20045;-72
2022/03/29 11:03:07;;;;;;;18.30;6.72;;;11.70;99.90;;;;;;5011009;28;20054;-72
2022/03/29 11:05:53;;;;;;;18.17;6.20;;;11.50;99.90;;;;;;5010203;28;20499;-73
2022/03/29 11:08:21;;;;;;;27.77;7.45;;;11.40;99.90;;;;;;5011858;28;20433;-72
2022/03/29 11:10:46;;;;;;;26.00;7.50;;;11.40;99.90;;;;;;5000980;28;20050;-74
2022/03/29 11:13:30;;;;;;;21.30;6.82;;;11.40;99.90;;;;;;5008405;28;20414;-70
2022/03/29 11:16:01;;;;;;;19.23;6.47;;;11.60;99.90;;;;;;5006035;28;20051;-74
2022/03/29 11:18:36;;;;;;;23.13;7.10;;;11.70;99.90;;;;;;4999966;28;20054;-72
2022/03/29 11:21:03;;;;;;;21.70;7.18;;;11.70;99.90;;;;;;5025348;28;20046;-71
2022/03/29 11:23:40;;;;;;;20.65;7.28;;;12.00;99.90;;;;;;5002409;28;20042;-73
2022/03/29 11:26:08;;;;;;;25.35;7.85;;;12.10;99.90;;;;;;5012706;28;20050;-75
2022/03/29 11:28:34;;;;;;;19.50;7.18;;;12.10;99.90;;;;;;5002063;28;20043;-73
2022/03/29 11:31:00;;;;;;;23.23;7.20;;;12.30;99.90;;;;;;5031507;28;20486;-71
2022/03/29 11:33:36;;;;;;;19.23;7.47;;;12.00;99.90;;;;;;5035420;28;20049;-72
2022/03/29 11:36:06;;;;;;;20.65;7.20;;;12.20;99.90;;;;;;5019690;28;20046;-70
2022/03/29 11:38:33;;;;;;;23.35;7.45;;;12.30;99.90;;;;;;5007042;28;20050;-73
2022/03/29 11:41:00;;;;;;;18.45;7.00;;;12.40;99.90;;;;;;5018922;28;20083;-71
2022/03/29 11:43:27;;;;;;;24.33;7.05;;;12.40;99.90;;;;;;5034152;28;20048;-74
2022/03/29 11:45:54;;;;;;;24.40;7.40;;;12.50;99.90;;;;;;5032080;28;20060;-74
2022/03/29 11:48:26;;;;;;;23.65;7.50;;;12.40;99.90;;;;;;5017659;28;20049;-71
2022/03/29 11:51:00;;;;;;;22.95;7.30;;;12.30;99.90;;;;;;5007709;28;20061;-71
2022/03/29 11:53:31;;;;;;;19.45;7.43;;;12.40;99.90;;;;;;4997896;28;20060;-71
2022/03/29 11:56:05;;;;;;;18.10;7.10;;;12.10;99.90;;;;;;5012095;28;20045;-69
2022/03/29 11:58:35;;;;;;;24.85;7.78;;;12.10;99.90;;;;;;5014045;28;20050;-71
2022/03/29 12:01:07;;;;;;;21.15;7.68;;;12.00;99.90;;;;;;5014053;28;20046;-72
2022/03/29 12:03:39;;;;;;;19.38;7.70;;;11.90;99.90;;;;;;5014818;28;20112;-73
2022/03/29 12:06:12;;;;;;;;;;;11.90;99.90;;;;;;5012480;28;20053;-72
2022/03/29 12:08:51;;;;;;;23.27;7.20;;;11.80;99.90;;;;;;5015209;28;19925;-70
2022/03/29 12:11:30;;;;;;;20.48;7.22;;;11.60;99.90;;;;;;4996769;28;20050;-73
2022/03/29 12:13:59;;;;;;;20.48;7.43;;;11.70;99.90;;;;;;5013951;28;20056;-73
2022/03/29 12:16:27;;;;;;;18.80;7.38;;;11.90;99.90;;;;;;4992322;28;20050;-71
2022/03/29 12:18:53;;;;;;;19.08;8.00;;;12.00;99.90;;;;;;4991806;28;20392;-72
2022/03/29 12:21:21;;;;;;;20.60;7.72;;;12.00;99.90;;;;;;4974877;28;20046;-71
2022/03/29 12:23:49;;;;;;;22.10;8.32;;;12.10;99.90;;;;;;5004774;28;20448;-76
2022/03/29 12:26:18;;;;;;;20.77;7.93;;;12.30;99.90;;;;;;4976165;28;20506;-75
2022/03/29 12:28:45;;;;;;;20.48;8.18;;;12.70;99.90;;;;;;5005188;28;20049;-71
2022/03/29 12:31:17;;;;;;;24.13;7.85;;;12.80;99.90;;;;;;4993957;28;20046;-70
2022/03/29 12:33:44;;;;;;;19.90;8.38;;;13.10;99.90;;;;;;4986296;28;20125;-72
2022/03/29 12:36:19;;;;;;;20.60;8.38;;;13.20;99.90;;;;;;5008104;28;20577;-73
2022/03/29 12:38:45;;;;;;;22.40;8.15;;;13.40;99.90;;;;;;4977997;28;20116;-71
2022/03/29 12:41:13;;;;;;;19.40;7.68;;;13.50;99.90;;;;;;4995698;28;20125;-69
2022/03/29 12:43:51;;;;;;;19.90;7.65;;;13.60;99.90;;;;;;4993424;28;20057;-69
2022/03/29 12:46:18;;;;;;;17.48;7.57;;;13.70;99.90;;;;;;5014153;28;20057;-70
2022/03/29 12:48:48;;;;;;;19.58;8.00;;;14.20;99.90;;;;;;4995799;28;20046;-69
2022/03/29 12:51:15;;;;;;;21.80;8.88;;;14.00;99.90;;;;;;4993404;28;20050;-72